Time;durP1;ratioP1;P1;durP2;ratioP2;P2;SDS_P1;SDS_P2;PMS_P1;PMS_P2;Temp;Humidity;BMP_temperature;BMP_pressure;BME280_temperature;BME280_humidity;BME280_pressure;Samples;Min_cycle;Max_cycle;Signal;HPM_P1;HPM_P2
2023/03/01 00:00:10;;;;;;;2.90;1.60;;;;;;;7.27;77.13;100241.34;4908245;29;20028;-94
2023/03/01 00:02:41;;;;;;;2.75;1.80;;;;;;;7.19;76.20;100228.25;4906315;29;20075;-94
2023/03/01 00:05:15;;;;;;;3.60;1.90;;;;;;;7.25;76.67;100230.03;4922389;29;20048;-93
2023/03/01 00:07:59;;;;;;;2.75;1.63;;;;;;;7.26;76.37;100242.38;4939918;29;20107;-94
2023/03/01 00:10:32;;;;;;;2.75;1.75;;;;;;;7.38;75.85;100224.50;4907145;29;20036;-94
2023/03/01 00:13:27;;;;;;;3.10;1.70;;;;;;;7.48;75.00;100240.03;4907783;29;20039;-94
2023/03/01 00:15:54;;;;;;;2.17;1.63;;;;;;;7.20;76.08;100229.88;4916118;29;20478;-94
2023/03/01 00:18:24;;;;;;;2.25;1.52;;;;;;;7.38;76.38;100237.91;4907086;29;20417;-93
2023/03/01 00:20:54;;;;;;;2.80;1.88;;;;;;;7.33;75.21;100227.06;4922192;29;20063;-94
2023/03/01 00:23:43;;;;;;;2.03;1.50;;;;;;;7.49;74.44;100244.34;4906714;29;20034;-93
2023/03/01 00:26:11;;;;;;;2.63;1.95;;;;;;;7.53;74.56;100248.22;4868476;29;20048;-94
2023/03/01 00:28:46;;;;;;;3.67;2.20;;;;;;;7.42;74.97;100243.63;4868899;29;20488;-95
2023/03/01 00:31:48;;;;;;;3.72;2.42;;;;;;;7.29;76.91;100256.16;4884699;29;20090;-94
2023/03/01 00:34:23;;;;;;;3.38;2.50;;;;;;;7.20;77.10;100245.94;4868899;29;20037;-94
2023/03/01 00:36:53;;;;;;;6.68;4.03;;;;;;;7.21;76.37;100247.59;4850704;29;20036;-94
2023/03/01 00:39:32;;;;;;;5.63;3.47;;;;;;;7.18;75.61;100238.16;4866613;29;20073;-95
2023/03/01 00:42:05;;;;;;;5.40;4.13;;;;;;;7.11;76.17;100215.97;4865869;29;20527;-94
2023/03/01 00:45:13;;;;;;;5.10;3.90;;;;;;;7.15;76.70;100221.72;4880495;29;20037;-94
2023/03/01 00:48:14;;;;;;;7.53;4.57;;;;;;;6.99;76.74;100213.25;4862324;29;20100;-93
2023/03/01 00:50:51;;;;;;;6.57;4.15;;;;;;;6.73;77.35;100202.84;4851013;29;20045;-94
2023/03/01 00:53:17;;;;;;;5.18;3.13;;;;;;;6.91;76.57;100202.00;4851106;29;20093;-94
2023/03/01 00:55:53;;;;;;;5.07;3.10;;;;;;;6.83;76.28;100177.19;4849400;29;20037;-94
2023/03/01 00:58:25;;;;;;;5.28;3.33;;;;;;;6.96;75.98;100191.47;4849842;29;20078;-95
2023/03/01 01:01:22;;;;;;;5.03;3.38;;;;;;;6.93;77.01;100197.25;4880815;29;20116;-94
2023/03/01 01:04:25;;;;;;;5.57;3.83;;;;;;;6.66;77.06;100165.44;4879027;29;20124;-94
2023/03/01 01:07:12;;;;;;;5.50;4.22;;;;;;;6.82;76.85;100183.56;4832871;29;20112;-94
2023/03/01 01:10:03;;;;;;;8.32;4.40;;;;;;;6.66;77.67;100165.44;4861120;29;20021;-94
2023/03/01 01:12:29;;;;;;;5.65;4.20;;;;;;;6.65;76.45;100161.94;4831177;29;20623;-94
2023/03/01 01:14:55;;;;;;;5.53;3.90;;;;;;;6.79;76.86;100175.19;4829754;29;20049;-95
2023/03/01 01:17:21;;;;;;;4.10;3.17;;;;;;;6.71;77.57;100168.28;4831385;29;20037;-94
2023/03/01 01:19:47;;;;;;;3.42;2.58;;;;;;;6.62;77.43;100159.72;4830272;29;20064;-94
2023/03/01 01:23:04;;;;;;;4.18;2.90;;;;;;;6.41;77.26;100141.41;4866257;29;20068;-94
2023/03/01 01:26:07;;;;;;;3.55;2.47;;;;;;;6.49;78.14;100157.19;4868298;29;20052;-94
2023/03/01 01:28:47;;;;;;;2.58;2.17;;;;;;;6.40;77.86;100147.81;4847583;29;20042;-94
2023/03/01 01:34:31;;;;;;;2.60;1.90;;;;;;;6.23;78.05;100177.00;4812545;29;20034;-93
2023/03/01 01:37:07;;;;;;;3.13;2.30;;;;;;;6.32;78.91;100180.19;4824997;29;20038;-92
2023/03/01 01:39:40;;;;;;;2.80;1.90;;;;;;;6.25;77.62;100161.56;4811423;29;20054;-93
2023/03/01 01:42:06;;;;;;;2.80;1.80;;;;;;;6.31;78.11;100176.72;4794273;29;20106;-93
2023/03/01 01:44:36;;;;;;;2.67;1.88;;;;;;;6.42;78.61;100188.53;4825104;29;20069;-93
2023/03/01 01:47:08;;;;;;;2.22;1.70;;;;;;;6.57;77.66;100180.97;4809002;29;20106;-93
2023/03/01 01:49:39;;;;;;;2.08;1.60;;;;;;;6.44;77.57;100183.78;4808493;29;20448;-94
2023/03/01 01:52:36;;;;;;;3.17;1.60;;;;;;;6.48;78.01;100188.47;4812455;29;20124;-93
2023/03/01 01:55:35;;;;;;;2.47;1.85;;;;;;;6.55;78.05;100198.28;4832318;29;20033;-94
2023/03/01 01:58:07;;;;;;;2.35;1.80;;;;;;;6.35;77.74;100180.59;4828528;29;20037;-94
2023/03/01 02:00:32;;;;;;;3.22;2.08;;;;;;;6.48;77.15;100174.28;4827113;29;20102;-95
2023/03/01 02:03:11;;;;;;;2.53;1.95;;;;;;;6.61;76.19;100190.19;4827155;29;20054;-94
2023/03/01 02:06:00;;;;;;;2.65;1.83;;;;;;;6.65;76.75;100179.88;4890814;29;20057;-93
2023/03/01 02:08:27;;;;;;;2.58;1.83;;;;;;;6.46;77.25;100169.16;4898194;29;20044;-95
2023/03/01 02:10:59;;;;;;;2.13;1.58;;;;;;;6.39;77.25;100172.91;4882365;29;20044;-93
2023/03/01 02:13:32;;;;;;;2.17;1.70;;;;;;;6.39;77.64;100194.31;4882496;29;20064;-93
2023/03/01 02:15:58;;;;;;;3.45;1.70;;;;;;;6.39;77.19;100160.38;4882660;29;20032;-94
2023/03/01 02:18:24;;;;;;;2.40;1.80;;;;;;;6.35;77.58;100166.38;4882835;29;20055;-93
2023/03/01 02:21:17;;;;;;;2.63;1.77;;;;;;;6.53;77.54;100178.97;4882779;29;20542;-94
2023/03/01 02:23:44;;;;;;;2.78;1.65;;;;;;;6.38;77.38;100182.81;4898115;29;20033;-93
2023/03/01 02:26:21;;;;;;;2.20;1.75;;;;;;;6.40;77.20;100170.03;4896053;29;20070;-93
2023/03/01 02:28:50;;;;;;;2.40;1.77;;;;;;;6.43;77.76;100163.41;4904752;29;20090;-94
2023/03/01 02:34:09;;;;;;;3.45;1.77;;;;;;;6.57;77.30;100180.16;4935568;29;20189;-94
2023/03/01 02:37:24;;;;;;;2.42;1.83;;;;;;;6.60;77.08;100171.66;4897841;29;20119;-94
2023/03/01 02:39:57;;;;;;;2.60;2.00;;;;;;;6.66;77.18;100171.63;4882576;29;20035;-94
2023/03/01 02:42:32;;;;;;;1.73;1.52;;;;;;;6.53;77.44;100145.00;4882178;29;20581;-93
2023/03/01 02:45:00;;;;;;;2.47;1.80;;;;;;;6.54;77.78;100160.03;4867140;29;20148;-93
2023/03/01 02:47:32;;;;;;;3.20;2.45;;;;;;;6.40;77.37;100155.84;4867174;29;20503;-93
2023/03/01 02:50:03;;;;;;;4.18;1.88;;;;;;;6.55;77.49;100169.66;4867562;29;20033;-94
2023/03/01 02:53:25;;;;;;;2.78;2.10;;;;;;;6.60;77.27;100164.47;4883479;29;20040;-93
2023/03/01 02:56:12;;;;;;;2.45;1.95;;;;;;;6.55;76.44;100160.84;4842016;29;20037;-94
2023/03/01 02:59:02;;;;;;;3.35;1.63;;;;;;;6.49;77.78;100167.88;4827583;29;20069;-92
2023/03/01 03:01:36;;;;;;;3.47;2.05;;;;;;;6.38;78.09;100157.91;4805928;29;20127;-93
2023/03/01 03:04:07;;;;;;;3.33;2.13;;;;;;;6.52;77.53;100170.13;4791776;29;20067;-92
2023/03/01 03:06:35;;;;;;;3.42;2.20;;;;;;;6.53;77.21;100163.72;4836117;29;20069;-93
2023/03/01 03:09:01;;;;;;;2.90;2.25;;;;;;;6.31;78.35;100149.97;4847337;29;20037;-94
2023/03/01 03:11:30;;;;;;;3.22;2.08;;;;;;;6.47;77.83;100165.44;4832500;29;20037;-94
2023/03/01 03:13:55;;;;;;;2.30;1.90;;;;;;;6.54;77.24;100172.59;4834143;29;20045;-94
2023/03/01 03:16:24;;;;;;;2.83;2.03;;;;;;;6.41;78.18;100152.97;4833123;29;20546;-93
2023/03/01 03:18:54;;;;;;;2.92;2.00;;;;;;;6.63;78.17;100160.53;4848074;29;20040;-93
2023/03/01 03:21:24;;;;;;;2.55;1.85;;;;;;;6.42;77.95;100135.84;4832298;29;20404;-93
2023/03/01 03:23:50;;;;;;;3.38;2.13;;;;;;;6.57;77.59;100156.88;4833295;29;20054;-95
2023/03/01 03:27:17;;;;;;;2.50;1.98;;;;;;;6.58;77.10;100163.03;4863369;29;20128;-93
2023/03/01 03:32:30;;;;;;;3.38;2.05;;;;;;;6.50;78.29;100176.75;4872134;29;20505;-94
2023/03/01 03:35:09;;;;;;;3.97;2.45;;;;;;;6.53;78.14;100174.41;4870707;29;20135;-94
2023/03/01 03:40:26;;;;;;;4.35;2.53;;;;;;;6.46;78.15;100157.63;4904167;29;20062;-93
2023/03/01 03:42:52;;;;;;;2.65;2.08;;;;;;;6.34;78.51;100154.06;4870004;29;20032;-93
2023/03/01 03:45:20;;;;;;;3.40;2.40;;;;;;;6.50;78.34;100166.84;4888193;29;20032;-94
2023/03/01 03:48:05;;;;;;;2.58;2.10;;;;;;;6.50;78.22;100174.88;4904039;29;20059;-94
2023/03/01 03:50:32;;;;;;;3.35;2.40;;;;;;;6.40;78.41;100145.97;4904014;29;20505;-94
2023/03/01 03:53:02;;;;;;;3.45;2.58;;;;;;;6.55;77.72;100160.84;4904479;29;20036;-93
2023/03/01 03:55:33;;;;;;;3.58;2.35;;;;;;;6.42;78.30;100157.25;4904372;29;20517;-94
2023/03/01 03:58:06;;;;;;;2.80;2.15;;;;;;;6.52;77.47;100161.28;4874990;29;20036;-95
2023/03/01 04:00:36;;;;;;;2.22;2.03;;;;;;;6.65;77.58;100166.47;4889025;29;20035;-94
2023/03/01 04:03:04;;;;;;;3.13;2.55;;;;;;;6.35;78.09;100129.78;4888253;29;20052;-93
2023/03/01 04:05:33;;;;;;;2.85;2.33;;;;;;;6.47;78.30;100140.53;4904720;29;20043;-94
2023/03/01 04:08:01;;;;;;;4.75;3.17;;;;;;;6.21;78.28;100123.72;4888627;29;20071;-94
2023/03/01 04:10:34;;;;;;;3.95;3.20;;;;;;;6.32;78.56;100135.53;4874268;29;20032;-94
2023/03/01 04:13:00;;;;;;;4.63;3.53;;;;;;;6.47;78.66;100159.25;4874034;29;20487;-93
2023/03/01 04:15:27;;;;;;;4.82;3.05;;;;;;;6.46;78.50;100141.59;4872685;29;20483;-92
2023/03/01 04:17:56;;;;;;;3.58;2.67;;;;;;;6.47;78.35;100154.75;4904682;29;20107;-92
2023/03/01 04:20:31;;;;;;;4.20;3.05;;;;;;;6.54;78.36;100162.69;4873189;29;20043;-94
2023/03/01 04:23:10;;;;;;;3.42;2.50;;;;;;;6.59;78.39;100160.16;4889436;29;20031;-93
2023/03/01 04:25:42;;;;;;;3.15;2.50;;;;;;;6.63;78.03;100157.88;4888686;29;20036;-94
2023/03/01 04:28:08;;;;;;;;;;;;;;;6.55;77.51;100164.31;4873554;29;20118;-94
2023/03/01 04:30:37;;;;;;;4.05;2.70;;;;;;;6.35;78.03;100147.66;4902386;29;19923;-94
2023/03/01 04:33:06;;;;;;;3.10;2.63;;;;;;;6.44;78.47;100155.19;4904190;29;20036;-93
2023/03/01 04:35:32;;;;;;;3.65;2.42;;;;;;;6.48;79.25;100167.06;4873461;29;20387;-94
2023/03/01 04:38:16;;;;;;;3.28;2.17;;;;;;;6.46;78.74;100158.44;4888958;29;20107;-94
2023/03/01 04:40:43;;;;;;;2.95;2.47;;;;;;;6.50;78.10;100147.31;4904202;29;20032;-94
2023/03/01 04:43:15;;;;;;;3.70;2.55;;;;;;;6.59;77.44;100151.31;4871793;29;20032;-95
2023/03/01 04:45:45;;;;;;;3.65;2.83;;;;;;;6.60;77.83;100156.47;4904127;29;20092;-94
2023/03/01 04:48:25;;;;;;;4.15;3.10;;;;;;;6.59;77.75;100143.28;4905877;29;20067;-94
2023/03/01 04:50:51;;;;;;;4.28;2.90;;;;;;;6.77;77.60;100174.59;4904096;29;20118;-94
2023/03/01 04:53:25;;;;;;;4.18;3.05;;;;;;;6.51;77.13;100144.41;4888634;29;20522;-95
2023/03/01 04:55:52;;;;;;;4.50;3.30;;;;;;;6.52;77.94;100151.41;4888698;29;20118;-96
2023/03/01 04:58:20;;;;;;;5.50;4.13;;;;;;;6.61;77.73;100167.97;4888854;29;20048;-95
2023/03/01 05:00:47;;;;;;;6.78;4.00;;;;;;;6.57;78.60;100164.91;4888971;29;20024;-95
2023/03/01 05:03:17;;;;;;;5.18;3.67;;;;;;;6.59;78.56;100146.78;4889040;29;20060;-94
2023/03/01 05:05:46;;;;;;;8.02;4.82;;;;;;;6.68;78.16;100145.47;4905039;29;20048;-93
2023/03/01 05:08:18;;;;;;;5.95;3.50;;;;;;;6.63;78.01;100142.63;4889115;29;20414;-94
2023/03/01 05:10:51;;;;;;;;;;;;;;;6.73;76.89;100154.69;4923421;29;20080;-95
2023/03/01 05:13:20;;;;;;;4.28;3.20;;;;;;;6.72;77.50;100161.88;4905613;29;20353;-94
2023/03/01 05:15:57;;;;;;;3.63;2.67;;;;;;;6.45;77.59;100143.44;4889275;29;20043;-95
2023/03/01 05:18:30;;;;;;;4.35;3.25;;;;;;;6.64;77.83;100157.66;4889140;29;20524;-94
2023/03/01 05:21:18;;;;;;;5.22;3.58;;;;;;;6.52;77.76;100140.69;4904102;29;20039;-95
2023/03/01 05:23:48;;;;;;;4.18;3.22;;;;;;;6.54;77.20;100138.63;4909058;29;20499;-94
2023/03/01 05:26:21;;;;;;;4.00;3.17;;;;;;;6.57;77.55;100145.38;4889320;29;20402;-95
2023/03/01 05:28:50;;;;;;;4.47;3.38;;;;;;;6.80;77.34;100168.78;4875965;29;20048;-95
2023/03/01 05:31:17;;;;;;;4.53;3.30;;;;;;;6.65;76.70;100147.75;4889504;29;20032;-94
2023/03/01 05:33:47;;;;;;;6.72;4.40;;;;;;;6.82;76.50;100150.63;4907131;29;20040;-95
2023/03/01 05:36:16;;;;;;;6.13;4.05;;;;;;;6.75;77.01;100134.66;4889870;29;20036;-94
2023/03/01 05:38:59;;;;;;;7.63;3.70;;;;;;;6.75;76.29;100144.56;4889439;29;20036;-94
2023/03/01 05:41:25;;;;;;;5.68;3.63;;;;;;;6.85;76.43;100148.34;4902586;29;20039;-96
2023/03/01 05:44:04;;;;;;;6.13;3.20;;;;;;;6.89;76.15;100143.38;4892211;29;20050;-94
2023/03/01 05:46:40;;;;;;;6.25;3.40;;;;;;;6.93;76.04;100122.28;4877935;29;20040;-95
2023/03/01 05:49:09;;;;;;;4.95;3.03;;;;;;;6.87;75.57;100132.06;4909903;29;20035;-96
2023/03/01 05:51:53;;;;;;;5.80;3.40;;;;;;;6.88;75.38;100155.09;4849353;29;20044;-94
2023/03/01 05:54:21;;;;;;;6.78;4.93;;;;;;;6.79;75.37;100141.19;4831959;29;20049;-93
2023/03/01 05:56:47;;;;;;;6.75;3.90;;;;;;;7.09;74.76;100159.16;4819062;29;20049;-92
2023/03/01 05:59:14;;;;;;;6.30;3.47;;;;;;;6.97;74.57;100136.84;4832512;29;20071;-93
2023/03/01 06:01:40;;;;;;;9.13;4.68;;;;;;;7.19;74.42;100158.63;4817350;29;20162;-95
2023/03/01 06:04:06;;;;;;;8.98;4.80;;;;;;;7.02;75.44;100135.16;4829362;29;20053;-94
2023/03/01 06:06:37;;;;;;;9.50;5.30;;;;;;;7.11;75.77;100166.97;4837012;29;20045;-95
2023/03/01 06:09:07;;;;;;;11.15;4.85;;;;;;;7.01;76.44;100160.28;4838652;29;20533;-94
2023/03/01 06:11:34;;;;;;;9.80;4.85;;;;;;;6.90;76.29;100165.59;4821915;29;20034;-93
2023/03/01 06:14:21;;;;;;;;;;;;;;;;;;;;;
2023/03/01 06:16:53;;;;;;;5.18;3.28;;;;;;;6.61;76.84;100158.06;4836359;29;20142;-93
2023/03/01 06:19:22;;;;;;;5.75;4.00;;;;;;;6.85;77.45;100163.59;4831987;29;20037;-95
2023/03/01 06:28:33;;;;;;;6.85;4.10;;;;;;;6.93;76.72;100147.22;4907958;29;20040;-96
2023/03/01 06:31:42;;;;;;;7.30;3.45;;;;;;;6.91;77.61;100143.94;4901508;29;20023;-95
2023/03/01 06:43:47;;;;;;;6.75;4.13;;;;;;;7.11;76.29;100175.00;5327753;23;20063;-94
2023/03/01 06:46:12;;;;;;;8.20;4.78;;;;;;;7.20;76.18;100160.25;4890133;29;20028;-93
2023/03/01 06:49:34;;;;;;;31.80;18.73;;;;;;;7.26;76.01;100170.91;4895669;29;20031;-93
2023/03/01 06:52:48;;;;;;;7.20;5.05;;;;;;;7.20;75.87;100157.56;4955341;29;20035;-96
2023/03/01 07:02:27;;;;;;;8.50;5.10;;;;;;;7.28;76.06;100170.66;4839251;29;20040;-95
2023/03/01 07:04:55;;;;;;;8.57;5.68;;;;;;;7.44;76.49;100182.59;4840553;29;20033;-95
2023/03/01 07:07:26;;;;;;;10.13;6.00;;;;;;;7.40;76.46;100181.41;4820060;29;20049;-94
2023/03/01 07:09:54;;;;;;;9.37;7.23;;;;;;;7.21;76.51;100172.59;4820016;29;20401;-95
2023/03/01 07:12:23;;;;;;;7.55;4.88;;;;;;;7.36;76.05;100181.03;4821458;29;20274;-95
2023/03/01 07:14:51;;;;;;;5.57;4.13;;;;;;;7.33;75.22;100199.44;4816142;29;20551;-93
2023/03/01 07:17:17;;;;;;;6.00;4.47;;;;;;;7.43;75.24;100189.00;4819123;29;20037;-92
2023/03/01 07:19:43;;;;;;;5.65;4.25;;;;;;;7.44;75.27;100175.38;4830967;29;20029;-93
2023/03/01 07:22:09;;;;;;;7.57;4.63;;;;;;;7.53;74.70;100180.41;4818328;29;20044;-92
2023/03/01 07:24:34;;;;;;;6.00;4.18;;;;;;;7.57;75.64;100187.75;4818456;29;20042;-92
2023/03/01 07:27:00;;;;;;;8.70;4.80;;;;;;;7.63;74.96;100184.16;4817838;29;20385;-93
2023/03/01 07:29:36;;;;;;;6.72;4.25;;;;;;;7.67;74.07;100193.38;4870614;29;20483;-92
2023/03/01 07:32:02;;;;;;;6.18;3.70;;;;;;;7.59;73.85;100188.34;4874685;29;20043;-93
2023/03/01 07:34:31;;;;;;;5.30;4.15;;;;;;;7.54;74.34;100172.16;4873920;29;20066;-93
2023/03/01 07:37:19;;;;;;;8.43;6.30;;;;;;;7.59;74.98;100171.44;4873420;29;20036;-91
2023/03/01 07:39:47;;;;;;;6.35;4.53;;;;;;;7.66;74.34;100164.16;4877530;29;20092;-91
2023/03/01 07:42:18;;;;;;;7.25;4.47;;;;;;;7.79;74.13;100188.06;4874316;29;20028;-93
2023/03/01 07:44:44;;;;;;;10.50;5.03;;;;;;;7.70;74.45;100170.69;4888264;29;20089;-92
2023/03/01 07:47:09;;;;;;;8.32;5.05;;;;;;;7.84;73.97;100188.19;4880743;29;20063;-92
2023/03/01 07:49:38;;;;;;;9.23;4.15;;;;;;;7.69;74.29;100169.84;4874313;29;20024;-91
2023/03/01 07:52:04;;;;;;;4.95;3.40;;;;;;;7.35;74.11;100159.84;4888087;29;20681;-92
2023/03/01 07:54:35;;;;;;;7.13;3.40;;;;;;;7.51;73.99;100171.78;4870127;29;20145;-93
2023/03/01 07:57:19;;;;;;;5.22;3.50;;;;;;;7.62;74.89;100187.09;4904785;29;20426;-94
2023/03/01 07:59:54;;;;;;;4.88;2.95;;;;;;;7.28;74.18;100159.94;4908461;29;20594;-93
2023/03/01 08:02:22;;;;;;;4.38;2.65;;;;;;;7.16;73.53;100162.56;4911137;29;20106;-93
2023/03/01 08:06:38;;;;;;;;;;;;;;;;;;;;;
2023/03/01 08:08:35;;;;;;;5.30;3.50;;;;;;;7.46;74.04;100180.50;4882884;29;20038;-93
2023/03/01 08:11:03;;;;;;;7.32;4.65;;;;;;;7.48;74.35;100170.38;4869590;29;20028;-94
2023/03/01 08:17:19;;;;;;;4.55;3.58;;;;;;;7.56;72.67;100182.63;4862936;29;20055;-95
2023/03/01 08:19:47;;;;;;;8.05;6.07;;;;;;;7.71;72.65;100174.16;4900797;29;20492;-95
2023/03/01 08:22:24;;;;;;;5.07;3.63;;;;;;;7.45;73.13;100168.97;4893091;29;20100;-95
2023/03/01 08:25:07;;;;;;;9.13;4.95;;;;;;;7.65;74.10;100191.97;4910901;29;20039;-94
2023/03/01 08:27:43;;;;;;;6.35;3.30;;;;;;;7.76;73.93;100201.09;4892996;29;20043;-95
2023/03/01 08:30:17;;;;;;;6.43;4.10;;;;;;;7.85;72.33;100194.38;4893123;29;20043;-94
2023/03/01 08:32:45;;;;;;;6.57;4.63;;;;;;;7.83;73.23;100183.06;4891446;29;20044;-95
2023/03/01 08:35:11;;;;;;;5.10;3.83;;;;;;;7.76;73.70;100174.28;4891772;29;20136;-95
2023/03/01 08:41:39;;;;;;;5.65;3.15;;;;;;;7.84;72.17;100182.84;4885406;29;20221;-96
2023/03/01 08:44:33;;;;;;;;;;;;;;;;;;;;;
2023/03/01 08:47:03;;;;;;;7.03;3.80;;;;;;;7.75;73.08;100172.66;4873225;29;20179;-93
2023/03/01 08:49:32;;;;;;;5.45;3.83;;;;;;;7.64;72.86;100167.03;4871956;29;20073;-95
2023/03/01 08:52:07;;;;;;;5.85;4.07;;;;;;;7.85;73.77;100184.44;4865289;29;20048;-96
2023/03/01 08:57:25;;;;;;;5.57;3.57;;;;;;;7.83;73.41;100181.19;5566313;23;20231;31
2023/03/01 09:42:05;;;;;;;7.60;5.78;;;;;;;8.00;71.05;100159.06;4936989;28;20084;-93
2023/03/01 09:45:00;;;;;;;7.80;5.50;;;;;;;8.05;71.59;100156.47;4893433;29;20032;-94
2023/03/01 09:47:42;;;;;;;16.02;9.82;;;;;;;8.32;70.55;100153.34;4896595;29;20080;-93
2023/03/01 09:50:50;;;;;;;12.98;7.47;;;;;;;8.53;70.82;100165.38;4897799;29;20509;-94
2023/03/01 09:53:37;;;;;;;11.10;6.82;;;;;;;8.38;71.49;100142.47;4912824;29;20086;-95
2023/03/01 09:56:44;;;;;;;8.93;5.28;;;;;;;8.50;69.91;100150.56;4897222;29;20023;-95
2023/03/01 09:59:37;;;;;;;7.93;4.95;;;;;;;8.36;70.73;100166.06;4856797;29;20397;-95
2023/03/01 10:02:50;;;;;;;8.60;5.35;;;;;;;8.38;70.50;100152.41;4928145;29;20035;-95
2023/03/01 10:11:49;;;;;;;15.13;9.85;;;;;;;8.36;70.33;100131.16;4868925;29;20034;-95
2023/03/01 10:14:48;;;;;;;7.38;4.45;;;;;;;8.42;70.59;100146.34;4838438;29;20157;-96
2023/03/01 10:17:37;;;;;;;6.63;4.57;;;;;;;8.44;69.91;100125.47;4875385;29;20041;-95
2023/03/01 10:20:56;;;;;;;6.28;4.03;;;;;;;8.38;70.05;100122.88;4861065;29;20093;-95
2023/03/01 10:33:54;;;;;;;;;;;;;;;;;;;;;
2023/03/01 10:36:24;;;;;;;25.50;16.73;;;;;;;8.27;70.27;100130.72;4951560;23;20887;-94
2023/03/01 10:42:08;;;;;;;5.40;3.83;;;;;;;8.29;69.84;100138.53;4917781;29;20047;-96
2023/03/01 10:45:00;;;;;;;;;;;;;;;;;;;;;
2023/03/01 10:48:04;;;;;;;8.50;5.00;;;;;;;8.11;70.33;100118.00;4929299;29;20059;-95
2023/03/01 10:51:02;;;;;;;7.13;4.55;;;;;;;7.96;71.30;100106.94;4913365;29;20430;-95
2023/03/01 10:54:41;;;;;;;7.78;4.18;;;;;;;7.97;71.24;100093.31;4877263;29;20046;-94
2023/03/01 10:57:57;;;;;;;;;;;;;;;;;;;;;
2023/03/01 11:06:05;;;;;;;9.15;4.70;;;;;;;8.13;69.26;100080.22;4913956;28;20064;-95
2023/03/01 11:09:00;;;;;;;7.38;4.45;;;;;;;8.37;69.63;100097.13;4888896;29;20116;-96
2023/03/01 11:11:43;;;;;;;9.68;5.57;;;;;;;8.47;70.33;100100.88;4896941;29;20033;-93
2023/03/01 11:14:45;;;;;;;8.88;5.28;;;;;;;8.19;72.10;100101.56;4854065;29;20085;-95
2023/03/01 11:17:38;;;;;;;13.00;7.18;;;;;;;8.09;70.82;100099.47;5075076;23;20475;-94
2023/03/01 11:20:41;;;;;;;9.60;4.88;;;;;;;8.15;70.16;100065.53;4882807;29;20032;-95
2023/03/01 11:23:39;;;;;;;8.05;4.72;;;;;;;8.32;71.38;100081.72;4814008;29;20033;-95
2023/03/01 11:26:30;;;;;;;8.40;4.32;;;;;;;8.31;70.21;100069.34;4891378;29;20063;-96
2023/03/01 11:40:44;;;;;;;8.50;5.00;;;;;;;8.58;70.22;100075.03;4913395;28;20057;-95
2023/03/01 11:43:29;;;;;;;5.70;4.05;;;;;;;8.29;69.94;100079.50;4888833;29;20036;-95
2023/03/01 12:05:41;;;;;;;10.60;5.78;;;;;;;8.30;69.62;100046.28;5380530;23;20026;31
2023/03/01 12:08:40;;;;;;;7.60;3.72;;;;;;;8.15;68.76;100014.56;4931169;29;20134;-96
2023/03/01 12:11:48;;;;;;;11.35;5.47;;;;;;;8.32;69.04;100046.03;4935671;23;20057;-94
2023/03/01 12:25:43;;;;;;;5.22;3.85;;;;;;;8.28;69.17;100030.41;4831216;29;20504;-95
2023/03/01 12:28:36;;;;;;;7.45;3.80;;;;;;;8.14;69.99;100055.06;4787936;29;20052;-96
2023/03/01 12:31:40;;;;;;;6.53;4.05;;;;;;;8.28;69.57;100051.06;4859810;29;20488;-94
2023/03/01 12:54:41;;;;;;;7.28;5.53;;;;;;;7.97;69.62;100015.53;4952074;29;20058;-92
2023/03/01 12:57:36;;;;;;;8.98;6.05;;;;;;;8.05;69.38;100022.38;4924481;29;20043;-96
2023/03/01 13:00:23;;;;;;;8.57;5.70;;;;;;;8.33;69.19;100045.78;4925004;29;20027;-95
2023/03/01 13:02:59;;;;;;;9.57;6.18;;;;;;;8.22;68.66;100034.03;4924985;29;20067;-94
2023/03/01 13:06:15;;;;;;;8.35;5.55;;;;;;;8.28;68.58;100048.38;4935470;29;20067;-96
2023/03/01 13:12:09;;;;;;;9.65;6.88;;;;;;;8.20;69.58;100038.81;5267914;23;20044;-94
2023/03/01 13:17:55;;;;;;;9.50;5.78;;;;;;;8.15;69.42;100014.56;5080543;23;20064;-94
2023/03/01 13:23:44;;;;;;;;;;;;;;;;;;;;;
2023/03/01 14:17:25;;;;;;;8.95;5.60;;;;;;;8.41;68.61;100007.88;4938504;29;20038;-94
2023/03/01 14:20:10;;;;;;;10.52;4.82;;;;;;;8.36;69.54;100014.97;4932039;29;20129;-96
2023/03/01 14:22:38;;;;;;;9.32;5.47;;;;;;;8.14;70.04;99998.72;4882757;29;20124;-92
2023/03/01 14:25:24;;;;;;;13.73;7.80;;;;;;;8.17;69.83;99998.22;4873837;29;20016;-96
2023/03/01 14:28:43;;;;;;;10.93;5.50;;;;;;;8.28;69.62;100014.31;4905618;29;20024;-95
2023/03/01 14:32:16;;;;;;;10.65;5.40;;;;;;;8.05;69.67;99987.53;4895728;29;20028;-95
2023/03/01 14:43:12;;;;;;;;;;;;;;;;;;;;;
2023/03/01 14:45:47;;;;;;;9.65;5.45;;;;;;;7.72;71.11;99980.94;4933139;29;20135;-92
2023/03/01 14:48:32;;;;;;;10.30;5.78;;;;;;;7.93;71.02;100002.81;4919693;29;20035;-95
2023/03/01 14:54:26;;;;;;;10.55;5.10;;;;;;;7.92;70.12;99980.56;5118103;23;20055;-94
2023/03/01 14:57:07;;;;;;;11.15;6.43;;;;;;;8.14;70.26;100009.44;4929689;29;20031;-94
2023/03/01 14:59:42;;;;;;;12.85;6.88;;;;;;;8.07;69.70;99988.09;4905531;29;20102;-95
2023/03/01 15:05:41;;;;;;;7.35;4.88;;;;;;;7.85;70.71;99982.56;4995881;23;20071;-95
2023/03/01 15:08:18;;;;;;;25.35;15.32;;;;;;;7.73;71.13;99987.13;4894512;29;20520;-94
2023/03/01 15:17:29;;;;;;;8.50;5.85;;;;;;;7.93;70.07;99992.94;5446034;23;20091;-94
2023/03/01 15:20:52;;;;;;;8.45;6.00;;;;;;;7.94;69.74;99975.78;4921173;29;20046;-95
2023/03/01 15:24:04;;;;;;;13.25;6.78;;;;;;;7.83;70.61;99965.91;4925436;29;20032;-96
2023/03/01 15:30:03;;;;;;;11.88;7.30;;;;;;;8.14;69.69;100004.09;4926890;29;20054;-94
2023/03/01 15:32:42;;;;;;;12.85;7.38;;;;;;;8.09;70.28;99999.41;4915630;29;20039;-95
2023/03/01 15:42:24;;;;;;;14.32;8.60;;;;;;;8.07;70.12;99999.66;4917583;29;20143;-96
2023/03/01 15:45:09;;;;;;;18.13;8.60;;;;;;;8.08;69.78;100003.16;4911652;29;20055;-96
2023/03/01 15:47:38;;;;;;;19.73;10.27;;;;;;;7.93;70.31;100006.34;4911577;29;20507;-95
2023/03/01 15:50:46;;;;;;;21.95;10.40;;;;;;;7.90;70.28;100001.44;4864882;29;20040;-96
2023/03/01 15:53:16;;;;;;;13.73;8.40;;;;;;;8.02;69.70;99988.00;4903564;29;20040;-96
2023/03/01 16:51:58;;;;;;;17.55;8.70;;;;;;;8.33;68.77;100037.75;4924181;28;20056;-94
2023/03/01 16:54:24;;;;;;;15.40;8.73;;;;;;;8.16;69.25;100010.84;4872912;29;20071;-94
2023/03/01 16:56:52;;;;;;;19.90;8.38;;;;;;;8.34;69.39;100031.31;4874525;29;20039;-93
2023/03/01 16:59:19;;;;;;;12.93;8.20;;;;;;;8.32;68.84;100032.59;4874200;29;20032;-93
2023/03/01 17:01:54;;;;;;;13.85;8.27;;;;;;;8.39;68.19;100025.25;4900150;29;20083;-95
2023/03/01 17:18:44;;;;;;;13.55;7.03;;;;;;;8.08;69.43;100024.63;5693868;23;20107;-95
2023/03/01 17:21:58;;;;;;;14.95;6.82;;;;;;;7.98;69.30;99997.56;4864546;29;20048;-95
2023/03/01 17:44:23;;;;;;;15.00;8.45;;;;;;;8.03;69.16;100011.09;2539661;23;20073;-92
2023/03/01 17:46:49;;;;;;;16.35;8.68;;;;;;;7.92;68.69;99995.84;4903939;29;20542;-95
2023/03/01 17:49:16;;;;;;;17.52;8.63;;;;;;;7.75;69.76;99993.06;4905216;29;20043;-93
2023/03/01 17:51:41;;;;;;;19.08;8.55;;;;;;;7.66;70.14;99982.69;4889615;29;20048;-92
2023/03/01 17:54:07;;;;;;;15.73;9.15;;;;;;;7.63;69.84;99985.81;4889224;29;20059;-90
2023/03/01 17:56:32;;;;;;;16.23;8.80;;;;;;;7.63;70.07;99990.38;4889773;29;20035;-94
2023/03/01 17:58:58;;;;;;;19.25;9.25;;;;;;;7.59;70.31;99983.84;4889585;29;20091;-93
2023/03/01 18:01:23;;;;;;;15.13;8.40;;;;;;;7.56;69.82;99978.97;4889419;29;20023;-93
2023/03/01 18:03:52;;;;;;;17.65;9.07;;;;;;;7.52;69.83;99993.88;4904585;29;20031;-93
2023/03/01 18:06:22;;;;;;;15.77;7.85;;;;;;;7.53;69.99;99998.19;4888780;29;20498;-92
2023/03/01 18:08:49;;;;;;;17.77;8.48;;;;;;;7.54;69.50;99979.19;4889416;29;20031;-92
2023/03/01 18:11:16;;;;;;;13.48;7.90;;;;;;;7.60;70.06;99989.00;4889861;29;20024;-92
2023/03/01 18:13:42;;;;;;;13.38;8.23;;;;;;;7.35;70.21;99991.91;4890221;29;20038;-92
2023/03/01 18:16:09;;;;;;;12.48;7.20;;;;;;;7.29;70.83;99995.50;4903355;29;20031;-93
2023/03/01 18:18:35;;;;;;;13.77;7.38;;;;;;;7.24;70.95;99998.88;4904658;29;20063;-92
2023/03/01 18:21:00;;;;;;;12.77;7.57;;;;;;;7.24;70.79;99998.88;4904476;29;20496;-91
2023/03/01 18:23:27;;;;;;;16.17;8.50;;;;;;;7.01;71.80;99991.59;4905031;29;20027;-93
2023/03/01 18:25:59;;;;;;;15.82;8.50;;;;;;;7.20;70.76;99997.72;4888534;29;20114;-92
2023/03/01 18:28:26;;;;;;;15.32;8.20;;;;;;;6.96;71.67;100012.09;4904573;29;20020;-93
2023/03/01 18:31:02;;;;;;;14.90;8.70;;;;;;;6.85;72.20;99989.59;4888583;29;20024;-93
2023/03/01 18:33:28;;;;;;;16.13;8.43;;;;;;;6.78;72.50;99984.31;4890720;29;20027;-92